createdAt,value
2022-10-15T00:01:18.543Z,16.15
2022-10-15T00:03:20.126Z,17.38
2022-10-15T00:05:22.569Z,17.05
2022-10-15T00:07:24.269Z,17.98
2022-10-15T00:09:25.903Z,17.48
2022-10-15T00:11:28.969Z,16.75
2022-10-15T00:13:30.444Z,17.88
2022-10-15T00:15:32.061Z,17.92
2022-10-15T00:17:34.736Z,16.95
2022-10-15T00:19:36.189Z,16.50
2022-10-15T00:21:38.116Z,16.98
2022-10-15T00:23:39.624Z,17.73
2022-10-15T00:25:42.451Z,18.17
2022-10-15T00:27:43.903Z,16.15
2022-10-15T00:29:45.348Z,17.92
2022-10-15T00:31:46.772Z,17.60
2022-10-15T00:33:50.672Z,18.73
2022-10-15T00:36:03.658Z,18.35
2022-10-15T00:38:05.154Z,17.30
2022-10-15T00:40:08.455Z,18.15
2022-10-15T00:42:11.215Z,18.73
2022-10-15T00:44:21.727Z,18.40
2022-10-15T00:46:35.225Z,16.17
2022-10-15T00:48:36.908Z,18.33
2022-10-15T00:50:38.739Z,18.33
2022-10-15T00:52:54.908Z,18.45
2022-10-15T00:55:02.056Z,18.45
2022-10-15T00:57:05.838Z,17.83
2022-10-15T00:59:09.072Z,18.50
2022-10-15T01:01:10.702Z,18.60
2022-10-15T01:03:15.173Z,19.85
2022-10-15T01:05:18.318Z,20.25
2022-10-15T01:07:19.890Z,20.65
2022-10-15T01:09:21.497Z,20.95
2022-10-15T01:11:50.625Z,20.65
2022-10-15T01:14:25.583Z,21.15
2022-10-15T01:16:46.576Z,22.17
2022-10-15T01:18:57.799Z,23.75
2022-10-15T01:21:09.285Z,23.52
2022-10-15T01:23:36.348Z,23.73
2022-10-15T01:25:56.247Z,23.75
2022-10-15T01:28:06.511Z,26.13
2022-10-15T01:30:49.647Z,25.05
2022-10-15T01:33:03.150Z,25.23
2022-10-15T01:35:20.044Z,26.70
2022-10-15T01:37:24.435Z,26.48
2022-10-15T01:39:39.196Z,27.17
2022-10-15T01:41:55.918Z,28.02
2022-10-15T01:44:07.080Z,26.95
2022-10-15T01:46:18.256Z,27.75
2022-10-15T01:48:21.023Z,28.40
2022-10-15T01:50:27.651Z,27.90
2022-10-15T01:52:34.267Z,27.77
2022-10-15T01:54:37.219Z,27.02
2022-10-15T01:56:39.313Z,28.25
2022-10-15T01:58:43.153Z,28.00
2022-10-15T02:00:44.919Z,28.63
2022-10-15T02:02:46.379Z,30.10
2022-10-15T02:04:47.814Z,29.25
2022-10-15T02:07:13.419Z,29.70
2022-10-15T02:09:14.786Z,29.67
2022-10-15T02:11:17.808Z,28.58
2022-10-15T02:13:28.363Z,29.88
2022-10-15T02:15:54.021Z,30.40
2022-10-15T02:20:43.966Z,28.98
2022-10-15T02:23:13.161Z,30.60
2022-10-15T02:25:19.123Z,29.63
2022-10-15T02:27:20.719Z,31.45
2022-10-15T02:29:27.118Z,29.70
2022-10-15T02:31:32.858Z,29.98
2022-10-15T02:33:35.850Z,28.13
2022-10-15T02:35:38.072Z,30.30
2022-10-15T02:37:44.616Z,30.30
2022-10-15T02:39:46.158Z,29.42
2022-10-15T02:41:49.023Z,29.50
2022-10-15T02:43:50.822Z,28.65
2022-10-15T02:45:52.350Z,29.15
2022-10-15T02:47:53.818Z,29.80
2022-10-15T02:49:55.290Z,29.90
2022-10-15T02:51:57.090Z,28.95
2022-10-15T02:53:58.587Z,30.10
2022-10-15T02:56:00.088Z,25.63
2022-10-15T02:58:01.736Z,28.63
2022-10-15T03:00:04.830Z,29.98
2022-10-15T03:02:06.419Z,29.67
2022-10-15T03:04:07.915Z,27.58
2022-10-15T03:06:09.744Z,27.98
2022-10-15T03:08:11.208Z,28.25
2022-10-15T03:10:12.649Z,27.23
2022-10-15T03:12:14.097Z,28.02
2022-10-15T03:14:15.525Z,28.27
2022-10-15T03:16:17.003Z,28.40
2022-10-15T03:18:18.522Z,28.20
2022-10-15T03:20:20.000Z,27.05
2022-10-15T03:22:21.434Z,28.50
2022-10-15T03:24:22.872Z,28.17
2022-10-15T03:26:24.686Z,26.75
2022-10-15T03:28:26.175Z,27.92
2022-10-15T03:30:27.631Z,26.73
2022-10-15T03:32:32.015Z,27.63
2022-10-15T03:34:35.786Z,26.63
2022-10-15T03:36:37.279Z,25.65
2022-10-15T03:38:38.725Z,25.75
2022-10-15T03:40:40.197Z,25.58
2022-10-15T03:42:41.713Z,25.08
2022-10-15T03:44:43.137Z,26.00
2022-10-15T03:46:44.576Z,24.60
2022-10-15T03:48:50.413Z,25.60
2022-10-15T03:50:51.837Z,24.88
2022-10-15T03:52:53.394Z,25.63
2022-10-15T03:54:54.829Z,25.77
2022-10-15T03:56:56.557Z,24.92
2022-10-15T03:58:58.431Z,24.95
2022-10-15T04:00:59.879Z,24.88
2022-10-15T04:03:01.381Z,22.88
2022-10-15T04:05:03.147Z,25.35
2022-10-15T04:07:04.613Z,25.95
2022-10-15T04:09:06.392Z,26.35
2022-10-15T04:11:07.931Z,26.85
2022-10-15T04:13:09.389Z,26.58
2022-10-15T04:15:11.030Z,25.42
2022-10-15T04:17:12.466Z,25.38
2022-10-15T04:19:13.921Z,25.38
2022-10-15T04:21:15.407Z,26.55
2022-10-15T04:23:17.973Z,24.77
2022-10-15T04:25:19.430Z,25.67
2022-10-15T04:27:20.917Z,25.70
2022-10-15T04:29:22.424Z,26.85
2022-10-15T04:31:23.920Z,25.70
2022-10-15T04:33:25.787Z,24.45
2022-10-15T04:35:27.393Z,25.27
2022-10-15T04:37:28.816Z,25.00
2022-10-15T04:39:30.233Z,25.83
2022-10-15T04:41:32.182Z,27.33
2022-10-15T04:43:33.862Z,25.60
2022-10-15T04:45:35.329Z,25.52
2022-10-15T04:47:37.098Z,27.80
2022-10-15T04:49:38.535Z,29.40
2022-10-15T04:51:40.026Z,27.42
2022-10-15T04:53:42.182Z,27.08
2022-10-15T04:55:43.641Z,26.23
2022-10-15T04:57:45.091Z,26.08
2022-10-15T04:59:46.513Z,27.63
2022-10-15T05:01:48.019Z,27.23
2022-10-15T05:03:49.621Z,26.95
2022-10-15T05:05:51.071Z,26.85
2022-10-15T05:07:52.501Z,25.85
2022-10-15T05:09:53.997Z,27.25
2022-10-15T05:11:55.965Z,28.48
2022-10-15T05:13:58.570Z,27.35
2022-10-15T05:16:18.148Z,27.33
2022-10-15T05:18:19.592Z,28.25
2022-10-15T05:20:21.054Z,28.15
2022-10-15T05:22:22.845Z,27.10
2022-10-15T05:24:24.707Z,29.10
2022-10-15T05:26:28.553Z,27.63
2022-10-15T05:28:30.873Z,28.25
2022-10-15T05:30:35.175Z,30.67
2022-10-15T05:32:36.711Z,29.73
2022-10-15T05:34:38.165Z,29.45
2022-10-15T05:36:39.716Z,29.05
2022-10-15T05:38:41.642Z,29.45
2022-10-15T05:40:49.195Z,27.85
2022-10-15T05:45:00.064Z,30.17
2022-10-15T05:47:01.619Z,27.92
2022-10-15T05:49:03.478Z,29.42
2022-10-15T05:51:07.621Z,29.77
2022-10-15T05:53:09.147Z,29.20
2022-10-15T05:55:10.947Z,29.25
2022-10-15T05:57:12.414Z,28.17
2022-10-15T05:59:13.824Z,28.63
2022-10-15T06:01:15.488Z,29.25
2022-10-15T06:03:16.919Z,29.05
2022-10-15T06:05:18.389Z,27.95
2022-10-15T06:07:20.504Z,29.80
2022-10-15T06:09:22.242Z,29.10
2022-10-15T06:11:23.756Z,29.20
2022-10-15T06:15:32.672Z,31.27
2022-10-15T06:17:34.105Z,30.88
2022-10-15T06:19:35.549Z,30.40
2022-10-15T06:21:37.010Z,29.98
2022-10-15T06:23:38.513Z,29.52
2022-10-15T06:25:39.986Z,30.17
2022-10-15T06:27:41.482Z,30.90
2022-10-15T06:29:42.933Z,29.55
2022-10-15T06:31:44.435Z,30.45
2022-10-15T06:33:45.863Z,30.55
2022-10-15T06:35:47.304Z,28.67
2022-10-15T06:37:49.010Z,31.08
2022-10-15T06:39:50.504Z,29.75
2022-10-15T06:41:51.941Z,29.17
2022-10-15T06:43:54.511Z,29.67
2022-10-15T06:45:59.221Z,30.95
2022-10-15T06:48:00.722Z,30.80
2022-10-15T06:50:02.280Z,31.27
2022-10-15T06:52:04.042Z,30.05
2022-10-15T06:54:05.565Z,31.45
2022-10-15T06:56:07.369Z,32.50
2022-10-15T06:58:09.360Z,31.95
2022-10-15T07:00:11.513Z,33.22
2022-10-15T07:02:14.248Z,31.48
2022-10-15T07:04:15.707Z,31.40
2022-10-15T07:06:17.739Z,32.67
2022-10-15T07:08:19.545Z,31.75
2022-10-15T07:10:21.788Z,31.92
2022-10-15T07:12:23.341Z,31.92
2022-10-15T07:14:24.962Z,33.88
2022-10-15T07:16:26.559Z,32.70
2022-10-15T07:18:27.991Z,32.42
2022-10-15T07:20:31.293Z,31.33
2022-10-15T07:22:32.730Z,31.90
2022-10-15T07:24:34.246Z,32.55
2022-10-15T07:26:35.759Z,33.05
2022-10-15T07:28:37.290Z,31.50
2022-10-15T07:30:38.903Z,32.13
2022-10-15T07:32:40.539Z,32.10
2022-10-15T07:34:41.971Z,29.80
2022-10-15T07:36:43.453Z,30.63
2022-10-15T07:38:44.882Z,29.40
2022-10-15T07:40:46.411Z,30.48
2022-10-15T07:42:58.639Z,30.45
2022-10-15T07:45:00.126Z,30.73
2022-10-15T07:47:01.581Z,30.85
2022-10-15T07:49:03.349Z,28.65
2022-10-15T07:51:07.171Z,30.27
2022-10-15T07:53:09.052Z,28.83
2022-10-15T07:55:10.789Z,29.15
2022-10-15T07:57:12.252Z,28.63
2022-10-15T07:59:13.790Z,28.98
2022-10-15T08:01:15.224Z,29.55
2022-10-15T08:03:16.688Z,28.25
2022-10-15T08:05:18.125Z,28.38
2022-10-15T08:07:19.626Z,28.27
2022-10-15T08:09:21.124Z,26.85
2022-10-15T08:11:22.603Z,28.70
2022-10-15T08:13:24.620Z,28.23
2022-10-15T08:15:26.115Z,27.63
2022-10-15T08:17:27.645Z,26.95
2022-10-15T08:19:29.115Z,26.08
2022-10-15T08:21:30.566Z,25.38
2022-10-15T08:23:32.981Z,25.88
2022-10-15T08:25:34.477Z,24.17
2022-10-15T08:27:36.454Z,25.08
2022-10-15T08:29:37.897Z,25.35
2022-10-15T08:31:40.031Z,22.60
2022-10-15T08:33:41.529Z,23.60
2022-10-15T08:35:43.719Z,22.75
2022-10-15T08:37:45.273Z,25.67
2022-10-15T08:39:47.023Z,25.08
2022-10-15T08:41:55.813Z,24.35
2022-10-15T08:43:57.680Z,24.33
2022-10-15T08:46:03.709Z,24.75
2022-10-15T08:48:11.056Z,24.83
2022-10-15T08:50:18.125Z,21.80
2022-10-15T08:52:43.057Z,21.45
2022-10-15T08:54:44.728Z,19.90
2022-10-15T08:56:54.327Z,21.58
2022-10-15T08:59:07.419Z,19.92
2022-10-15T09:01:29.016Z,19.42
2022-10-15T09:03:39.941Z,18.05
2022-10-15T09:05:51.564Z,19.17
2022-10-15T09:08:26.179Z,17.98
2022-10-15T09:10:35.801Z,16.70
2022-10-15T09:12:51.068Z,16.88
2022-10-15T09:14:56.956Z,16.98
2022-10-15T09:17:04.604Z,15.93
2022-10-15T09:19:15.293Z,16.52
2022-10-15T09:21:17.299Z,15.68
2022-10-15T09:23:25.757Z,14.85
2022-10-15T09:25:35.189Z,14.63
2022-10-15T09:27:39.491Z,14.18
2022-10-15T09:30:05.518Z,14.15
2022-10-15T09:32:15.886Z,13.43
2022-10-15T09:34:35.493Z,14.13
2022-10-15T09:36:51.741Z,13.57
2022-10-15T09:39:30.905Z,13.88
2022-10-15T09:42:01.465Z,14.63
2022-10-15T09:44:07.245Z,14.18
2022-10-15T09:46:09.520Z,14.13
2022-10-15T09:48:17.777Z,14.90
2022-10-15T09:50:19.508Z,15.23
2022-10-15T09:52:30.008Z,15.55
2022-10-15T09:55:00.570Z,15.23
2022-10-15T09:57:02.014Z,16.25
2022-10-15T09:59:05.974Z,16.95
2022-10-15T10:01:22.239Z,16.92
2022-10-15T10:03:27.616Z,16.88
2022-10-15T10:05:31.240Z,16.30
2022-10-15T10:07:37.989Z,17.67
2022-10-15T10:09:52.208Z,18.40
2022-10-15T10:11:56.274Z,17.92
2022-10-15T10:13:59.993Z,19.42
2022-10-15T10:16:12.992Z,18.73
2022-10-15T10:18:24.206Z,18.60
2022-10-15T10:20:31.250Z,19.73
2022-10-15T10:22:50.396Z,20.63
2022-10-15T10:24:53.218Z,19.75
2022-10-15T10:26:55.103Z,20.27
2022-10-15T10:29:05.058Z,20.15
2022-10-15T10:31:17.755Z,19.42
2022-10-15T10:33:30.854Z,19.45
2022-10-15T10:35:43.829Z,20.02
2022-10-15T10:37:45.343Z,20.63
2022-10-15T10:39:52.588Z,20.80
2022-10-15T10:41:55.544Z,20.90
2022-10-15T10:43:56.968Z,20.98
2022-10-15T10:46:17.335Z,20.20
2022-10-15T10:48:37.666Z,20.00
2022-10-15T10:50:41.006Z,19.23
2022-10-15T10:52:42.531Z,19.17
2022-10-15T10:54:44.231Z,18.83
2022-10-15T10:56:45.783Z,19.20
2022-10-15T10:58:53.008Z,19.90
2022-10-15T11:00:55.615Z,19.33
2022-10-15T11:02:57.545Z,20.27
2022-10-15T11:04:58.994Z,20.50
2022-10-15T11:07:06.275Z,22.17
2022-10-15T11:09:44.398Z,23.38
2022-10-15T11:12:07.620Z,23.15
2022-10-15T11:14:41.368Z,24.42
2022-10-15T11:17:04.241Z,26.38
2022-10-15T11:19:50.370Z,26.48
2022-10-15T11:22:01.515Z,25.65
2022-10-15T11:24:16.206Z,25.13
2022-10-15T11:26:52.504Z,25.33
2022-10-15T11:30:02.283Z,25.08
2022-10-15T11:32:28.433Z,25.08
2022-10-15T11:34:41.425Z,24.65
2022-10-15T11:37:15.403Z,22.77
2022-10-15T11:40:00.192Z,21.95
2022-10-15T11:42:23.706Z,20.60
2022-10-15T11:44:52.380Z,21.60
2022-10-15T11:47:08.713Z,20.45
2022-10-15T11:49:38.321Z,19.33
2022-10-15T11:52:03.818Z,18.38
2022-10-15T11:54:11.661Z,17.40
2022-10-15T11:56:19.130Z,13.95
2022-10-15T11:58:31.045Z,11.80
2022-10-15T12:00:38.701Z,12.68
2022-10-15T12:02:40.509Z,13.20
2022-10-15T12:04:52.049Z,12.43
2022-10-15T12:06:57.142Z,11.20
2022-10-15T12:09:00.565Z,10.93
2022-10-15T12:11:28.365Z,10.63
2022-10-15T12:14:07.694Z,9.85
2022-10-15T12:16:19.179Z,10.43
2022-10-15T12:18:31.565Z,9.65
2022-10-15T12:20:33.045Z,9.10
2022-10-15T12:22:40.066Z,9.77
2022-10-15T12:24:45.108Z,10.32
2022-10-15T12:26:46.595Z,10.45
2022-10-15T12:28:50.377Z,10.38
2022-10-15T12:31:03.957Z,9.75
2022-10-15T12:33:28.473Z,10.73
2022-10-15T12:35:32.860Z,11.23
2022-10-15T12:37:36.126Z,11.48
2022-10-15T12:39:57.484Z,10.98
2022-10-15T12:41:59.941Z,10.68
2022-10-15T12:44:20.884Z,10.95
2022-10-15T12:46:22.389Z,11.55
2022-10-15T12:48:41.029Z,11.13
2022-10-15T12:50:42.563Z,11.00
2022-10-15T12:53:26.265Z,10.93
2022-10-15T12:55:36.457Z,11.88
2022-10-15T12:57:38.823Z,12.25
2022-10-15T12:59:46.073Z,12.30
2022-10-15T13:01:47.636Z,12.27
2022-10-15T13:03:49.367Z,12.60
2022-10-15T13:05:54.064Z,12.70
2022-10-15T13:07:58.469Z,13.23
2022-10-15T13:09:59.967Z,13.82
2022-10-15T13:12:02.384Z,13.27
2022-10-15T13:14:13.009Z,12.85
2022-10-15T13:16:14.921Z,12.38
2022-10-15T13:18:16.490Z,12.35
2022-10-15T13:20:37.962Z,13.38
2022-10-15T13:22:39.431Z,12.77
2022-10-15T13:24:43.678Z,13.15
2022-10-15T13:26:45.168Z,12.73
2022-10-15T13:28:49.466Z,12.60
2022-10-15T13:30:50.926Z,14.13
2022-10-15T13:32:55.289Z,13.27
2022-10-15T13:34:57.839Z,13.20
2022-10-15T13:37:02.064Z,13.25
2022-10-15T13:39:07.841Z,13.25
2022-10-15T13:41:09.487Z,13.85
2022-10-15T13:43:20.402Z,13.52
2022-10-15T13:45:21.828Z,13.77
2022-10-15T13:47:30.897Z,14.35
2022-10-15T13:49:32.637Z,14.30
2022-10-15T13:51:41.965Z,14.55
2022-10-15T13:53:43.502Z,14.32
2022-10-15T13:55:51.022Z,16.00
2022-10-15T13:58:01.809Z,16.27
2022-10-15T14:00:04.521Z,16.88
2022-10-15T14:02:11.701Z,16.80
2022-10-15T14:04:19.110Z,17.08
2022-10-15T14:06:22.001Z,17.45
2022-10-15T14:08:28.058Z,17.77
2022-10-15T14:10:29.688Z,17.77
2022-10-15T14:12:31.221Z,19.45
2022-10-15T14:14:34.242Z,19.17
2022-10-15T14:16:42.443Z,18.17
2022-10-15T14:18:49.459Z,18.45
2022-10-15T14:20:51.178Z,17.60
2022-10-15T14:22:52.795Z,18.27
2022-10-15T14:24:56.238Z,17.13
2022-10-15T14:27:04.334Z,18.63
2022-10-15T14:29:07.681Z,17.27
2022-10-15T14:31:09.225Z,18.27
2022-10-15T14:33:49.015Z,15.65
2022-10-15T14:36:11.766Z,14.07
2022-10-15T14:38:13.458Z,13.88
2022-10-15T14:40:18.503Z,13.73
2022-10-15T14:42:28.039Z,14.57
2022-10-15T14:44:48.084Z,13.77
2022-10-15T14:47:01.325Z,13.10
2022-10-15T14:49:02.998Z,13.95
2022-10-15T14:51:07.714Z,13.60
2022-10-15T14:53:16.036Z,13.90
2022-10-15T14:55:24.108Z,13.98
2022-10-15T14:57:29.739Z,12.93
2022-10-15T14:59:37.022Z,13.35
2022-10-15T15:01:39.477Z,13.23
2022-10-15T15:03:46.868Z,13.93
2022-10-15T15:05:50.880Z,13.00
2022-10-15T15:07:52.620Z,14.10
2022-10-15T15:09:54.301Z,13.05
2022-10-15T15:11:56.009Z,13.80
2022-10-15T15:13:57.556Z,12.65
2022-10-15T15:15:58.981Z,12.95
2022-10-15T15:18:00.449Z,12.48
2022-10-15T15:20:01.921Z,12.25
2022-10-15T15:22:03.352Z,11.93
2022-10-15T15:24:05.206Z,11.52
2022-10-15T15:26:06.708Z,11.77
2022-10-15T15:28:29.378Z,11.10
2022-10-15T15:30:34.254Z,9.63
2022-10-15T15:32:35.739Z,9.82
2022-10-15T15:34:37.188Z,9.10
2022-10-15T15:36:38.613Z,9.88
2022-10-15T15:38:40.565Z,8.82
2022-10-15T15:40:42.007Z,7.50
2022-10-15T15:42:44.185Z,8.30
2022-10-15T15:44:46.138Z,7.90
2022-10-15T15:46:50.285Z,8.45
2022-10-15T15:48:51.788Z,8.25
2022-10-15T15:50:53.405Z,8.20
2022-10-15T15:52:55.097Z,7.30
2022-10-15T15:54:56.791Z,6.47
2022-10-15T15:56:58.306Z,6.63
2022-10-15T15:58:59.719Z,6.60
2022-10-15T16:01:01.343Z,6.20
2022-10-15T16:03:02.921Z,5.72
2022-10-15T16:05:08.866Z,5.82
2022-10-15T16:07:13.351Z,6.22
2022-10-15T16:09:16.866Z,4.72
2022-10-15T16:11:18.313Z,5.00
2022-10-15T16:13:19.737Z,4.70
2022-10-15T16:15:21.171Z,4.75
2022-10-15T16:17:24.137Z,4.45
2022-10-15T16:19:25.879Z,4.50
2022-10-15T16:21:28.250Z,4.25
2022-10-15T16:23:29.705Z,4.60
2022-10-15T16:25:31.281Z,3.60
2022-10-15T16:27:34.469Z,3.30
2022-10-15T16:29:36.043Z,3.28
2022-10-15T16:31:37.566Z,2.42
2022-10-15T16:33:38.987Z,3.20
2022-10-15T16:35:40.583Z,2.60
2022-10-15T16:37:42.005Z,2.80
2022-10-15T16:39:43.518Z,2.83
2022-10-15T16:41:45.001Z,2.63
2022-10-15T16:43:47.638Z,2.55
2022-10-15T16:45:58.977Z,2.25
2022-10-15T16:48:00.411Z,2.67
2022-10-15T16:50:04.084Z,2.22
2022-10-15T16:52:05.561Z,2.20
2022-10-15T16:54:07.042Z,2.30
2022-10-15T16:56:14.128Z,2.30
2022-10-15T16:58:15.594Z,2.25
2022-10-15T17:00:17.034Z,2.03
2022-10-15T17:02:18.693Z,2.30
2022-10-15T17:04:20.190Z,2.28
2022-10-15T17:06:24.640Z,2.33
2022-10-15T17:08:34.857Z,2.13
2022-10-15T17:10:41.994Z,2.13
2022-10-15T17:12:43.467Z,2.40
2022-10-15T17:14:50.705Z,2.25
2022-10-15T17:16:52.717Z,2.67
2022-10-15T17:18:55.502Z,2.70
2022-10-15T17:20:56.978Z,2.38
2022-10-15T17:22:58.456Z,2.65
2022-10-15T17:24:59.955Z,2.58
2022-10-15T17:27:01.406Z,3.33
2022-10-15T17:29:04.567Z,2.78
2022-10-15T17:31:08.207Z,3.10
2022-10-15T17:33:09.631Z,3.40
2022-10-15T17:35:11.052Z,3.08
2022-10-15T17:37:14.252Z,3.05
2022-10-15T17:39:18.826Z,3.10
2022-10-15T17:41:22.407Z,2.47
2022-10-15T17:43:23.830Z,3.05
2022-10-15T17:45:25.261Z,2.75
2022-10-15T17:47:27.184Z,2.53
2022-10-15T17:49:28.936Z,2.60
2022-10-15T17:51:31.845Z,2.85
2022-10-15T17:53:33.858Z,2.72
2022-10-15T17:55:35.278Z,2.70
2022-10-15T17:57:36.747Z,2.90
2022-10-15T17:59:38.166Z,3.13
2022-10-15T18:01:58.694Z,3.33
2022-10-15T18:04:00.890Z,3.20
2022-10-15T18:06:16.028Z,3.03
2022-10-15T18:08:18.002Z,3.30
2022-10-15T18:10:19.628Z,2.90
2022-10-15T18:12:21.069Z,3.22
2022-10-15T18:14:22.570Z,3.38
2022-10-15T18:16:24.474Z,3.38
2022-10-15T18:18:26.795Z,3.17
2022-10-15T18:20:28.276Z,3.10
2022-10-15T18:22:30.328Z,3.30
2022-10-15T18:24:33.060Z,3.45
2022-10-15T18:26:34.590Z,2.75
2022-10-15T18:28:39.290Z,3.20
2022-10-15T18:30:42.423Z,3.38
2022-10-15T18:32:43.872Z,3.15
2022-10-15T18:34:45.340Z,3.30
2022-10-15T18:36:46.815Z,3.22
2022-10-15T18:38:48.885Z,3.15
2022-10-15T18:40:50.371Z,3.50
2022-10-15T18:42:51.855Z,3.45
2022-10-15T18:44:54.319Z,3.22
2022-10-15T18:46:56.126Z,4.32
2022-10-15T18:48:58.158Z,3.83
2022-10-15T18:51:01.339Z,3.88
2022-10-15T18:53:04.846Z,3.88
2022-10-15T18:55:06.945Z,4.40
2022-10-15T18:57:08.386Z,4.28
2022-10-15T18:59:10.078Z,4.13
2022-10-15T19:01:14.395Z,4.95
2022-10-15T19:03:15.872Z,5.03
2022-10-15T19:05:17.556Z,4.55
2022-10-15T19:07:19.282Z,5.28
2022-10-15T19:09:24.144Z,4.78
2022-10-15T19:11:25.999Z,5.45
2022-10-15T19:13:27.444Z,4.95
2022-10-15T19:15:28.913Z,5.40
2022-10-15T19:17:30.439Z,5.60
2022-10-15T19:19:32.030Z,5.40
2022-10-15T19:21:34.341Z,5.03
2022-10-15T19:23:35.938Z,5.07
2022-10-15T19:25:41.662Z,5.25
2022-10-15T19:27:43.883Z,5.68
2022-10-15T19:29:45.314Z,5.45
2022-10-15T19:31:48.767Z,5.40
2022-10-15T19:33:50.395Z,5.88
2022-10-15T19:35:53.141Z,5.70
2022-10-15T19:37:54.571Z,5.80
2022-10-15T19:39:56.019Z,5.30
2022-10-15T19:41:57.508Z,5.78
2022-10-15T19:43:59.093Z,5.93
2022-10-15T19:46:04.302Z,5.47
2022-10-15T19:48:06.325Z,6.10
2022-10-15T19:50:07.948Z,5.95
2022-10-15T19:52:09.407Z,5.93
2022-10-15T19:54:10.987Z,5.53
2022-10-15T19:56:12.530Z,5.22
2022-10-15T19:58:14.175Z,5.22
2022-10-15T20:00:16.181Z,5.22
2022-10-15T20:02:17.648Z,5.20
2022-10-15T20:04:19.103Z,5.85
2022-10-15T20:06:20.909Z,5.38
2022-10-15T20:08:22.986Z,4.97
2022-10-15T20:10:26.254Z,5.22
2022-10-15T20:12:28.008Z,4.93
2022-10-15T20:14:29.446Z,6.50
2022-10-15T20:16:33.223Z,5.53
2022-10-15T20:18:36.072Z,5.32
2022-10-15T20:20:39.814Z,5.43
2022-10-15T20:22:41.247Z,5.47
2022-10-15T20:24:42.763Z,5.47
2022-10-15T20:26:44.599Z,5.38
2022-10-15T20:28:46.696Z,5.43
2022-10-15T20:30:49.805Z,5.22
2022-10-15T20:32:51.392Z,5.80
2022-10-15T20:34:52.852Z,5.72
2022-10-15T20:36:55.450Z,5.57
2022-10-15T20:38:59.445Z,5.60
2022-10-15T20:41:06.397Z,5.35
2022-10-15T20:43:08.951Z,5.75
2022-10-15T20:45:16.109Z,5.70
2022-10-15T20:47:18.111Z,6.35
2022-10-15T20:49:25.334Z,6.00
2022-10-15T20:51:28.603Z,5.95
2022-10-15T20:53:30.485Z,5.93
2022-10-15T20:55:32.219Z,6.68
2022-10-15T20:57:33.910Z,6.13
2022-10-15T20:59:35.364Z,6.28
2022-10-15T21:01:37.297Z,6.88
2022-10-15T21:03:38.773Z,5.75
2022-10-15T21:05:40.221Z,6.22
2022-10-15T21:07:41.694Z,6.72
2022-10-15T21:09:43.151Z,6.57
2022-10-15T21:11:46.400Z,6.57
2022-10-15T21:13:47.843Z,7.10
2022-10-15T21:15:49.260Z,6.28
2022-10-15T21:17:50.714Z,6.75
2022-10-15T21:19:52.951Z,7.65
2022-10-15T21:21:54.670Z,7.40
2022-10-15T21:23:57.876Z,6.72
2022-10-15T21:26:10.780Z,6.68
2022-10-15T21:28:12.267Z,6.53
2022-10-15T21:30:13.803Z,7.20
2022-10-15T21:32:15.760Z,6.63
2022-10-15T21:34:17.319Z,6.38
2022-10-15T21:36:24.344Z,6.93
2022-10-15T21:38:26.050Z,7.45
2022-10-15T21:40:27.496Z,7.70
2022-10-15T21:42:30.617Z,8.15
2022-10-15T21:44:33.040Z,7.63
2022-10-15T21:46:35.079Z,7.50
2022-10-15T21:48:37.925Z,7.43
2022-10-15T21:50:39.351Z,7.03
2022-10-15T21:52:40.799Z,6.65
2022-10-15T21:54:42.238Z,7.45
2022-10-15T21:56:43.731Z,6.07
2022-10-15T21:58:45.614Z,7.22
2022-10-15T22:00:47.328Z,6.63
2022-10-15T22:02:50.516Z,6.70
2022-10-15T22:04:51.953Z,6.93
2022-10-15T22:06:53.430Z,6.85
2022-10-15T22:08:55.037Z,6.95
2022-10-15T22:11:17.268Z,6.68
2022-10-15T22:13:18.766Z,6.53
2022-10-15T22:15:20.198Z,6.53
2022-10-15T22:17:21.718Z,6.43
2022-10-15T22:19:23.278Z,6.07
2022-10-15T22:21:27.329Z,5.50
2022-10-15T22:23:28.768Z,5.82
2022-10-15T22:25:30.215Z,5.85
2022-10-15T22:27:32.492Z,5.47
2022-10-15T22:29:35.445Z,5.47
2022-10-15T22:33:40.833Z,4.60
2022-10-15T22:35:42.306Z,4.35
2022-10-15T22:37:43.760Z,4.43
2022-10-15T22:39:45.232Z,4.18
2022-10-15T22:41:48.301Z,4.10
2022-10-15T22:43:49.869Z,4.70
2022-10-15T22:45:51.804Z,3.50
2022-10-15T22:47:53.243Z,3.83
2022-10-15T22:49:54.724Z,3.70
2022-10-15T22:51:56.263Z,3.65
2022-10-15T22:53:59.105Z,3.33
2022-10-15T22:56:06.624Z,2.83
2022-10-15T22:58:08.072Z,3.10
2022-10-15T23:00:10.280Z,2.75
2022-10-15T23:02:11.738Z,3.08
2022-10-15T23:04:14.930Z,3.25
2022-10-15T23:06:18.174Z,2.40
2022-10-15T23:08:20.609Z,2.38
2022-10-15T23:10:22.529Z,2.40
2022-10-15T23:12:24.307Z,2.13
2022-10-15T23:14:26.076Z,2.03
2022-10-15T23:16:33.082Z,2.08
2022-10-15T23:18:34.841Z,1.90
2022-10-15T23:20:40.122Z,1.52
2022-10-15T23:22:41.564Z,1.88
2022-10-15T23:24:43.020Z,1.40
2022-10-15T23:26:44.440Z,1.95
2022-10-15T23:28:54.542Z,1.10
2022-10-15T23:30:56.191Z,1.35
2022-10-15T23:32:57.661Z,1.73
2022-10-15T23:34:59.148Z,1.10
2022-10-15T23:37:00.622Z,1.15
2022-10-15T23:39:05.197Z,1.40
2022-10-15T23:41:08.659Z,1.40
2022-10-15T23:43:10.081Z,1.23
2022-10-15T23:45:11.523Z,1.10
2022-10-15T23:47:12.951Z,1.50
2022-10-15T23:49:14.475Z,1.50
2022-10-15T23:51:24.778Z,1.13
2022-10-15T23:53:27.175Z,1.45
2022-10-15T23:55:28.705Z,1.02
2022-10-15T23:57:30.145Z,1.25
2022-10-15T23:59:31.619Z,0.85
